Sam Norwood, Texas
Current Conditions -  °F | °C
As of 11:53 PM on Sunday 25 Jan 2015 (Local Time) from KCDS Reporting Station
Clear Clear  
Wind Chill: 38°   Ceiling: Unl
Heat Index: 42°   Visibility: 10mi
Dew Point: 32°   Wind: 6mph
Humidity: 67%   Direction: 280°W
Pressure: 30.22"   Gusts: NA
Location:  35.0524°N, 100.276°W
Report Text: KCDS 260553Z AUTO 28005KT 10SM CLR 06/00 A3022 RMK AO2 SLP230 T00560000 10139 20056 401720017 50008 $
Loading
Personal Weather Stations






























Interactive Weather Map New forecast layout! Learn more

10-Day Weather Forecast

Advertisements
Track Severe Weather on mobile